< < Back
Terminal Aerodrome Forecast


Current Version              Previous Versions:   1  2  3  4  5  6  7  8  9  

Terminal Aerodrome Forecast

455
FTUS42 KCHS 190300 AAB
TAFSAV
TAF AMD
KSAV 190346Z 1904/1924 06009KT P6SM BKN006
     FM190500 01007KT P6SM SCT004 BKN010
     FM191100 36008KT P6SM BKN015=



Latest METAR

015
SAUS80 KWBC 191100 RRA
MTRSAV
METAR KSAV 191053Z 02007KT 3SM BR BKN004 OVC007 14/13 A2993 RMK AO2
RAE0954 SLP133 T01440133


USA.gov is the U.S. government's official web portal to all federal, state and local government web resources and services.